createdAt,value
2018-07-17T06:01:56.336Z,54.9
2018-07-17T06:02:46.062Z,54.9
2018-07-17T06:03:36.155Z,54.9
2018-07-17T06:04:26.268Z,54.9
2018-07-17T06:05:16.285Z,54.9
2018-07-17T06:06:06.608Z,54.9
2018-07-17T06:06:56.379Z,54.9
2018-07-17T06:07:46.442Z,54.9
2018-07-17T06:08:36.803Z,54.9
2018-07-17T06:09:26.662Z,54.9
2018-07-17T06:10:17.441Z,54.9
2018-07-17T06:11:06.753Z,54.9
2018-07-17T06:11:56.778Z,54.9
2018-07-17T06:12:47.143Z,54.9
2018-07-17T06:13:36.933Z,54.9
2018-07-17T06:14:27.257Z,54.9
2018-07-17T06:15:17.056Z,54.9
2018-07-17T06:16:07.409Z,54.8
2018-07-17T06:16:57.523Z,54.8
2018-07-17T06:17:47.515Z,54.8
2018-07-17T06:18:37.601Z,54.8
2018-07-17T06:19:26.818Z,54.8
2018-07-17T06:20:17.808Z,54.8
2018-07-17T06:21:07.604Z,54.8
2018-07-17T06:21:57.761Z,54.8
2018-07-17T06:22:47.629Z,54.8
2018-07-17T06:23:37.656Z,54.8
2018-07-17T06:24:27.230Z,54.8
2018-07-17T06:25:18.155Z,54.8
2018-07-17T06:26:07.889Z,54.8
2018-07-17T06:26:58.222Z,54.8
2018-07-17T06:27:47.987Z,54.8
2018-07-17T06:28:38.335Z,54.8
2018-07-17T06:29:28.163Z,54.8
2018-07-17T06:30:17.895Z,54.8
2018-07-17T06:31:08.342Z,54.8
2018-07-17T06:31:58.316Z,54.8
2018-07-17T06:32:48.087Z,54.7
2018-07-17T06:33:38.787Z,54.7
2018-07-17T06:34:28.030Z,54.7
2018-07-17T06:35:18.628Z,54.7
2018-07-17T06:36:08.649Z,54.7
2018-07-17T06:36:58.463Z,54.7
2018-07-17T06:37:48.581Z,54.7
2018-07-17T06:38:38.902Z,54.7
2018-07-17T06:39:28.361Z,54.7
2018-07-17T06:40:18.955Z,54.6
2018-07-17T06:41:09.025Z,54.6
2018-07-17T06:41:59.105Z,54.6
2018-07-17T06:42:49.424Z,54.6
2018-07-17T06:43:39.258Z,54.6
2018-07-17T06:44:28.853Z,54.6
2018-07-17T06:45:19.653Z,54.6
2018-07-17T06:46:09.721Z,54.6
2018-07-17T06:46:59.492Z,54.6
2018-07-17T06:47:49.812Z,54.6
2018-07-17T06:48:39.359Z,54.6
2018-07-17T06:49:29.916Z,54.6
2018-07-17T06:50:20.983Z,54.6
2018-07-17T06:51:09.552Z,54.6
2018-07-17T06:51:59.597Z,54.6
2018-07-17T06:52:50.251Z,54.6
2018-07-17T06:53:39.527Z,54.6
2018-07-17T06:54:30.049Z,54.6
2018-07-17T06:55:20.410Z,54.5
2018-07-17T06:56:10.456Z,54.6
2018-07-17T06:57:00.544Z,54.5
2018-07-17T06:57:50.043Z,54.5
2018-07-17T06:58:40.403Z,54.5
2018-07-17T06:59:30.165Z,54.5
2018-07-17T07:00:20.772Z,54.5
2018-07-17T07:01:10.835Z,54.5
2018-07-17T07:02:00.953Z,54.4
2018-07-17T07:02:50.432Z,54.5
2018-07-17T07:03:40.512Z,54.4
2018-07-17T07:04:30.580Z,54.4
2018-07-17T07:05:21.023Z,54.4
2018-07-17T07:06:11.000Z,54.4
2018-07-17T07:07:00.777Z,54.4
2018-07-17T07:07:51.382Z,54.4
2018-07-17T07:08:40.844Z,54.4
2018-07-17T07:09:31.000Z,54.4
2018-07-17T07:10:21.319Z,54.4
2018-07-17T07:11:12.160Z,54.4
2018-07-17T07:12:01.402Z,54.4
2018-07-17T07:12:51.244Z,54.4
2018-07-17T07:13:41.265Z,54.4
2018-07-17T07:14:31.070Z,54.4
2018-07-17T07:15:21.404Z,54.4
2018-07-17T07:16:12.044Z,54.4
2018-07-17T07:17:01.292Z,54.4
2018-07-17T07:17:51.900Z,54.4
2018-07-17T07:18:41.644Z,54.4
2018-07-17T07:19:32.262Z,54.3
2018-07-17T07:20:22.360Z,54.3
2018-07-17T07:21:12.404Z,54.3
2018-07-17T07:22:02.524Z,54.3
2018-07-17T07:22:52.258Z,54.3
2018-07-17T07:23:42.335Z,54.3
2018-07-17T07:24:32.666Z,54.3
2018-07-17T07:25:21.953Z,54.3
2018-07-17T07:26:12.305Z,54.3
2018-07-17T07:27:02.578Z,54.3
2018-07-17T07:27:52.383Z,54.3
2018-07-17T07:28:43.032Z,54.3
2018-07-17T07:29:32.758Z,54.3
2018-07-17T07:30:22.807Z,54.3
2018-07-17T07:31:12.625Z,54.3
2018-07-17T07:32:03.273Z,54.3
2018-07-17T07:32:52.473Z,54.3
2018-07-17T07:33:42.541Z,54.2
2018-07-17T07:34:32.994Z,54.2
2018-07-17T07:35:23.238Z,54.2
2018-07-17T07:36:13.608Z,54.2
2018-07-17T07:37:03.402Z,54.2
2018-07-17T07:37:53.694Z,54.2
2018-07-17T07:38:43.220Z,54.2
2018-07-17T07:39:33.265Z,54.2
2018-07-17T07:40:23.583Z,54.2
2018-07-17T07:41:13.659Z,54.1
2018-07-17T07:42:03.736Z,54.2
2018-07-17T07:42:55.082Z,54.2
2018-07-17T07:43:44.099Z,54.2
2018-07-17T07:44:33.888Z,54.1
2018-07-17T07:45:24.018Z,54.1
2018-07-17T07:46:13.757Z,54.1
2018-07-17T07:47:03.866Z,54.1
2018-07-17T07:47:54.526Z,54.1
2018-07-17T07:48:43.625Z,54.1
2018-07-17T07:49:34.601Z,54.1
2018-07-17T07:50:24.385Z,54.1
2018-07-17T07:51:14.408Z,54.1
2018-07-17T07:52:04.759Z,54.1
2018-07-17T07:52:54.264Z,54.1
2018-07-17T07:53:44.872Z,54.1
2018-07-17T07:54:34.973Z,54.1
2018-07-17T07:55:24.790Z,54.1
2018-07-17T07:56:15.062Z,54.1
2018-07-17T07:57:04.601Z,54.1
2018-07-17T07:57:55.203Z,54.1
2018-07-17T07:58:44.441Z,54
2018-07-17T07:59:35.321Z,54
2018-07-17T08:00:24.861Z,54
2018-07-17T08:01:14.952Z,54
2018-07-17T08:02:05.522Z,54
2018-07-17T08:02:55.323Z,54
2018-07-17T08:03:46.621Z,54
2018-07-17T08:04:34.878Z,53.9
2018-07-17T08:05:25.203Z,54
2018-07-17T08:06:16.009Z,53.9
2018-07-17T08:07:05.349Z,53.9
2018-07-17T08:07:55.682Z,53.9
2018-07-17T08:08:46.038Z,53.9
2018-07-17T08:09:35.288Z,53.9
2018-07-17T08:10:25.319Z,53.9
2018-07-17T08:11:15.938Z,53.9
2018-07-17T08:12:06.992Z,53.9
2018-07-17T08:12:56.393Z,53.9
2018-07-17T08:13:46.161Z,53.9
2018-07-17T08:14:35.666Z,53.9
2018-07-17T08:15:26.543Z,53.9
2018-07-17T08:16:16.633Z,53.9
2018-07-17T08:17:06.696Z,53.9
2018-07-17T08:17:56.748Z,53.9
2018-07-17T08:18:46.501Z,53.9
2018-07-17T08:19:36.839Z,53.9
2018-07-17T08:20:26.683Z,53.9
2018-07-17T08:21:16.423Z,53.9
2018-07-17T08:22:07.039Z,53.8
2018-07-17T08:22:56.861Z,53.8
2018-07-17T08:23:46.635Z,53.8
2018-07-17T08:24:36.974Z,53.8
2018-07-17T08:25:27.294Z,53.8
2018-07-17T08:26:17.369Z,53.8
2018-07-17T08:27:07.213Z,53.8
2018-07-17T08:27:56.927Z,53.8
2018-07-17T08:28:47.295Z,53.8
2018-07-17T08:29:37.633Z,53.8
2018-07-17T08:30:27.131Z,53.8
2018-07-17T08:31:17.812Z,53.8
2018-07-17T08:32:07.554Z,53.8
2018-07-17T08:32:57.902Z,53.8
2018-07-17T08:33:47.681Z,53.8
2018-07-17T08:34:37.480Z,53.8
2018-07-17T08:35:28.102Z,53.8
2018-07-17T08:36:17.351Z,53.8
2018-07-17T08:37:07.668Z,53.7
2018-07-17T08:37:57.763Z,53.8
2018-07-17T08:38:48.067Z,53.7
2018-07-17T08:39:38.135Z,53.7
2018-07-17T08:40:28.221Z,53.7
2018-07-17T08:41:18.345Z,53.7
2018-07-17T08:42:08.326Z,53.7
2018-07-17T08:42:58.428Z,53.7
2018-07-17T08:43:48.988Z,53.7
2018-07-17T08:44:38.343Z,53.6
2018-07-17T08:45:28.040Z,53.6
2018-07-17T08:46:18.008Z,53.6
2018-07-17T08:47:09.003Z,53.6
2018-07-17T08:47:58.786Z,53.6
2018-07-17T08:48:48.665Z,53.6
2018-07-17T08:49:39.195Z,53.6
2018-07-17T08:50:29.244Z,53.6
2018-07-17T08:51:19.018Z,53.6
2018-07-17T08:52:08.825Z,53.6
2018-07-17T08:52:59.533Z,53.6
2018-07-17T08:53:49.496Z,53.6
2018-07-17T08:54:39.979Z,53.6
2018-07-17T08:55:29.694Z,53.6
2018-07-17T08:56:18.890Z,53.6
2018-07-17T08:57:09.759Z,53.6
2018-07-17T08:57:59.577Z,53.6
2018-07-17T08:58:49.329Z,53.5
2018-07-17T08:59:39.709Z,53.6
2018-07-17T09:00:30.220Z,53.6
2018-07-17T09:01:19.528Z,53.5
2018-07-17T09:02:09.591Z,53.5
2018-07-17T09:02:59.393Z,53.5
2018-07-17T09:03:49.706Z,53.5
2018-07-17T09:04:40.089Z,53.5
2018-07-17T09:05:30.389Z,53.5
2018-07-17T09:06:20.480Z,53.5
2018-07-17T09:07:10.253Z,53.5
2018-07-17T09:08:00.587Z,53.5
2018-07-17T09:08:50.636Z,53.4
2018-07-17T09:09:40.714Z,53.4
2018-07-17T09:10:30.525Z,53.4
2018-07-17T09:11:20.853Z,53.4
2018-07-17T09:12:10.408Z,53.4
2018-07-17T09:13:01.085Z,53.4
2018-07-17T09:13:50.786Z,53.4
2018-07-17T09:14:40.824Z,53.4
2018-07-17T09:15:30.726Z,53.4
2018-07-17T09:16:20.984Z,53.4
2018-07-17T09:17:10.447Z,53.4
2018-07-17T09:18:01.367Z,53.4
2018-07-17T09:18:51.480Z,53.4
2018-07-17T09:19:41.488Z,53.4
2018-07-17T09:20:31.267Z,53.4
2018-07-17T09:21:21.363Z,53.4
2018-07-17T09:22:11.693Z,53.4
2018-07-17T09:23:01.226Z,53.4
2018-07-17T09:23:51.554Z,53.4
2018-07-17T09:24:40.784Z,53.3
2018-07-17T09:25:31.429Z,53.3
2018-07-17T09:26:21.717Z,53.3
2018-07-17T09:27:12.067Z,53.3
2018-07-17T09:28:01.861Z,53.3
2018-07-17T09:28:51.758Z,53.3
2018-07-17T09:29:41.976Z,53.3
2018-07-17T09:30:32.330Z,53.3
2018-07-17T09:31:22.135Z,53.3
2018-07-17T09:32:12.466Z,53.3
2018-07-17T09:33:02.545Z,53.3
2018-07-17T09:33:52.303Z,53.3
2018-07-17T09:34:42.658Z,53.3
2018-07-17T09:35:32.439Z,53.3
2018-07-17T09:36:21.946Z,53.3
2018-07-17T09:37:12.535Z,53.3
2018-07-17T09:38:02.903Z,53.3
2018-07-17T09:38:53.397Z,53.3
2018-07-17T09:39:43.019Z,53.2
2018-07-17T09:40:33.102Z,53.3
2018-07-17T09:41:23.162Z,53.3
2018-07-17T09:42:13.257Z,53.3
2018-07-17T09:43:03.289Z,53.2
2018-07-17T09:43:53.351Z,53.2
2018-07-17T09:44:43.432Z,53.2
2018-07-17T09:45:33.495Z,53.2
2018-07-17T09:46:23.567Z,53.2
2018-07-17T09:47:13.699Z,53.2
2018-07-17T09:48:02.874Z,53.1
2018-07-17T09:48:53.219Z,53.2
2018-07-17T09:49:43.260Z,53.2
2018-07-17T09:50:33.599Z,53.1
2018-07-17T09:51:23.433Z,53.1
2018-07-17T09:52:13.759Z,53.1
2018-07-17T09:53:03.803Z,53.1
2018-07-17T09:53:53.865Z,53.1
2018-07-17T09:54:43.675Z,53.1
2018-07-17T09:55:33.710Z,53.1
2018-07-17T09:56:23.803Z,53.1
2018-07-17T09:57:14.406Z,53.1
2018-07-17T09:58:03.935Z,53.1
2018-07-17T09:58:54.256Z,53.1
2018-07-17T09:59:43.750Z,53
2018-07-17T10:00:34.672Z,53.1
2018-07-17T10:01:24.479Z,53.1
2018-07-17T10:02:14.817Z,53.1
2018-07-17T10:03:04.563Z,53.1
2018-07-17T10:03:54.936Z,53.1
2018-07-17T10:04:45.191Z,53
2018-07-17T10:05:35.044Z,53
2018-07-17T10:06:25.524Z,53
2018-07-17T10:07:14.644Z,53
2018-07-17T10:08:05.236Z,53
2018-07-17T10:08:55.012Z,53
2018-07-17T10:09:45.369Z,53
2018-07-17T10:10:35.404Z,53
2018-07-17T10:11:25.224Z,53
2018-07-17T10:12:15.266Z,52.9
2018-07-17T10:13:05.071Z,53
2018-07-17T10:13:55.501Z,52.9
2018-07-17T10:14:45.537Z,52.9
2018-07-17T10:15:35.365Z,52.9
2018-07-17T10:16:25.322Z,52.9
2018-07-17T10:17:16.011Z,52.9
2018-07-17T10:18:06.044Z,52.9
2018-07-17T10:18:56.092Z,52.9
2018-07-17T10:19:45.595Z,52.9
2018-07-17T10:20:35.359Z,52.9
2018-07-17T10:21:26.282Z,52.9
2018-07-17T10:22:16.058Z,52.9
2018-07-17T10:23:05.847Z,52.9
2018-07-17T10:23:56.440Z,52.9
2018-07-17T10:24:46.563Z,52.9
2018-07-17T10:25:36.346Z,52.9
2018-07-17T10:26:27.234Z,52.9
2018-07-17T10:27:16.703Z,52.9
2018-07-17T10:28:06.216Z,52.9
2018-07-17T10:28:56.562Z,52.9
2018-07-17T10:29:46.402Z,52.8
2018-07-17T10:30:36.939Z,52.8
2018-07-17T10:31:27.107Z,52.8
2018-07-17T10:32:17.817Z,52.8
2018-07-17T10:33:06.884Z,52.8
2018-07-17T10:33:57.235Z,52.8
2018-07-17T10:34:46.973Z,52.8
2018-07-17T10:35:37.334Z,52.8
2018-07-17T10:36:27.385Z,52.8
2018-07-17T10:37:17.462Z,52.8
2018-07-17T10:38:07.545Z,52.8
2018-07-17T10:38:57.648Z,52.8
2018-07-17T10:39:47.663Z,52.8
2018-07-17T10:40:37.751Z,52.8
2018-07-17T10:41:27.545Z,52.8
2018-07-17T10:42:17.891Z,52.8
2018-07-17T10:43:07.486Z,52.8
2018-07-17T10:43:57.969Z,52.8
2018-07-17T10:44:48.051Z,52.8
2018-07-17T10:45:37.856Z,52.8
2018-07-17T10:46:28.201Z,52.8
2018-07-17T10:47:18.258Z,52.7
2018-07-17T10:48:08.345Z,52.7
2018-07-17T10:48:58.377Z,52.7
2018-07-17T10:49:47.913Z,52.7
2018-07-17T10:50:38.522Z,52.7
2018-07-17T10:51:28.628Z,52.7
2018-07-17T10:52:18.650Z,52.7
2018-07-17T10:53:08.443Z,52.7
2018-07-17T10:53:58.228Z,52.6
2018-07-17T10:54:48.556Z,52.7
2018-07-17T10:55:38.636Z,52.6
2018-07-17T10:56:28.973Z,52.6
2018-07-17T10:57:18.747Z,52.6
2018-07-17T10:58:09.070Z,52.6
2018-07-17T10:58:59.174Z,52.6
2018-07-17T10:59:48.911Z,52.6
2018-07-17T11:00:38.705Z,52.6
2018-07-17T11:01:29.097Z,52.6
2018-07-17T11:02:19.384Z,52.6
2018-07-17T11:03:09.500Z,52.6
2018-07-17T11:03:59.517Z,52.6
2018-07-17T11:04:49.604Z,52.6
2018-07-17T11:05:39.720Z,52.6
2018-07-17T11:06:29.689Z,52.6
2018-07-17T11:07:19.804Z,52.6
2018-07-17T11:08:09.592Z,52.6
2018-07-17T11:08:59.446Z,52.6
2018-07-17T11:09:49.445Z,52.5
2018-07-17T11:10:40.056Z,52.6
2018-07-17T11:11:29.554Z,52.5
2018-07-17T11:12:19.895Z,52.5
2018-07-17T11:13:10.210Z,52.5
2018-07-17T11:14:00.035Z,52.5
2018-07-17T11:14:50.456Z,52.4
2018-07-17T11:15:40.161Z,52.5
2018-07-17T11:16:29.951Z,52.4
2018-07-17T11:17:20.575Z,52.5
2018-07-17T11:18:10.341Z,52.4
2018-07-17T11:19:00.729Z,52.4
2018-07-17T11:19:50.794Z,52.4
2018-07-17T11:20:40.821Z,52.4
2018-07-17T11:21:30.899Z,52.4
2018-07-17T11:22:20.140Z,52.4
2018-07-17T11:23:10.816Z,52.4
2018-07-17T11:24:00.257Z,52.4
2018-07-17T11:24:50.903Z,52.4
2018-07-17T11:25:40.204Z,52.4
2018-07-17T11:26:31.288Z,52.4
2018-07-17T11:29:01.492Z,52.4
2018-07-17T11:35:41.511Z,52.3
2018-07-17T11:36:32.076Z,52.3
2018-07-17T11:37:22.111Z,52.3
2018-07-17T11:38:11.740Z,52.3
2018-07-17T11:39:01.694Z,52.3
2018-07-17T11:39:51.748Z,52.3
2018-07-17T11:40:41.865Z,52.3
2018-07-17T11:41:31.606Z,52.3
2018-07-17T11:42:22.252Z,52.3
2018-07-17T11:43:12.313Z,52.3
2018-07-17T11:44:02.648Z,52.3
2018-07-17T11:44:52.683Z,52.3
2018-07-17T11:45:42.780Z,52.3
2018-07-17T11:46:32.834Z,52.3
2018-07-17T11:47:22.349Z,52.3
2018-07-17T11:48:12.941Z,52.3
2018-07-17T11:49:03.034Z,52.3
2018-07-17T11:49:52.856Z,52.3
2018-07-17T11:50:43.211Z,52.3
2018-07-17T11:51:33.218Z,52.2
2018-07-17T11:52:23.001Z,52.3
2018-07-17T11:53:13.721Z,52.2
2018-07-17T11:54:03.159Z,52.2
2018-07-17T11:54:53.222Z,52.2
2018-07-17T11:55:42.457Z,52.2
2018-07-17T11:56:33.345Z,52.2
2018-07-17T11:57:23.124Z,52.2
2018-07-17T11:58:13.211Z,52.2
2018-07-17T11:59:05.175Z,52.2
2018-07-17T11:59:53.341Z,52.2
2018-07-17T12:00:43.402Z,52.1
2018-07-17T12:01:34.045Z,52.1
2018-07-17T12:02:23.579Z,52.1
2018-07-17T12:03:14.161Z,52.1
2018-07-17T12:04:03.941Z,52.1
2018-07-17T12:04:53.983Z,52.1
2018-07-17T12:05:44.449Z,52.1
2018-07-17T12:06:34.374Z,52.1
2018-07-17T12:07:24.181Z,52.1
2018-07-17T12:08:14.275Z,52.1
2018-07-17T12:09:04.571Z,52.1
2018-07-17T12:09:54.135Z,52.1
2018-07-17T12:10:43.866Z,52.1
2018-07-17T12:11:34.499Z,52.1
2018-07-17T12:12:24.724Z,52.1
2018-07-17T12:13:14.875Z,52.1
2018-07-17T12:14:04.394Z,52.1
2018-07-17T12:14:55.027Z,52.1
2018-07-17T12:15:45.111Z,52.1
2018-07-17T12:16:34.313Z,52
2018-07-17T12:17:24.922Z,52.1
2018-07-17T12:18:14.728Z,52
2018-07-17T12:19:05.383Z,52
2018-07-17T12:19:55.856Z,52
2018-07-17T12:20:45.202Z,52
2018-07-17T12:21:34.718Z,52
2018-07-17T12:22:25.343Z,52
2018-07-17T12:23:14.854Z,52
2018-07-17T12:24:05.493Z,52
2018-07-17T12:24:55.806Z,52
2018-07-17T12:25:45.291Z,52
2018-07-17T12:35:46.656Z,51.9
2018-07-17T12:36:36.238Z,51.9
2018-07-17T12:37:25.984Z,51.9
2018-07-17T12:38:16.900Z,51.9
2018-07-17T12:39:06.705Z,51.9
2018-07-17T12:39:56.706Z,51.9
2018-07-17T12:40:45.926Z,51.9
2018-07-17T12:41:37.085Z,51.8
2018-07-17T12:42:26.346Z,51.9
2018-07-17T12:43:16.689Z,51.8
2018-07-17T12:44:06.770Z,51.8
2018-07-17T12:44:56.544Z,51.8
2018-07-17T12:45:47.158Z,51.8
2018-07-17T12:46:37.516Z,51.8
2018-07-17T12:47:27.291Z,51.8
2018-07-17T12:48:17.087Z,51.8
2018-07-17T12:49:06.689Z,51.8
2018-07-17T12:49:57.353Z,51.8
2018-07-17T12:50:47.810Z,51.8
2018-07-17T12:51:37.865Z,51.8
2018-07-17T12:52:27.674Z,51.8
2018-07-17T12:53:18.007Z,51.8
2018-07-17T12:54:07.800Z,51.8
2018-07-17T12:54:57.027Z,51.8
2018-07-17T12:55:48.219Z,51.8
2018-07-17T12:56:38.306Z,51.8
2018-07-17T12:57:28.402Z,51.8
2018-07-17T12:58:18.437Z,51.8
2018-07-17T12:59:07.895Z,51.8
2018-07-17T12:59:57.133Z,51.7
2018-07-17T13:00:48.360Z,51.7
2018-07-17T13:01:37.856Z,51.7
2018-07-17T13:02:28.179Z,51.7
2018-07-17T13:03:18.517Z,51.7
2018-07-17T13:04:08.590Z,51.7
2018-07-17T13:04:58.651Z,51.7
2018-07-17T13:05:48.411Z,51.7
2018-07-17T13:06:38.492Z,51.7
2018-07-17T13:07:29.147Z,51.7
2018-07-17T13:08:18.902Z,51.7
2018-07-17T13:09:08.713Z,51.7
2018-07-17T13:09:59.310Z,51.6
2018-07-17T13:10:49.387Z,51.6
2018-07-17T13:11:39.180Z,51.6
2018-07-17T13:12:29.240Z,51.6
2018-07-17T13:13:19.555Z,51.6
2018-07-17T13:14:09.688Z,51.6
2018-07-17T13:14:59.715Z,51.6
2018-07-17T13:15:49.770Z,51.6
2018-07-17T13:16:39.532Z,51.6
2018-07-17T13:17:29.758Z,51.6
2018-07-17T13:18:19.676Z,51.6
2018-07-17T13:19:10.004Z,51.6
2018-07-17T13:20:00.069Z,51.6
2018-07-17T13:20:50.128Z,51.6
2018-07-17T13:21:40.173Z,51.6
2018-07-17T13:22:29.984Z,51.6
2018-07-17T13:23:20.323Z,51.6
2018-07-17T13:24:09.841Z,51.5
2018-07-17T13:25:00.176Z,51.5
2018-07-17T13:25:50.234Z,51.6
2018-07-17T13:26:40.607Z,51.5
2018-07-17T13:27:30.646Z,51.5
2018-07-17T13:28:20.417Z,51.5
2018-07-17T13:29:10.764Z,51.5
2018-07-17T13:30:00.830Z,51.5
2018-07-17T13:30:50.639Z,51.5
2018-07-17T13:31:40.993Z,51.5
2018-07-17T13:32:31.038Z,51.5
2018-07-17T13:33:20.825Z,51.5
2018-07-17T13:34:11.185Z,51.4
2018-07-17T13:35:01.266Z,51.5
2018-07-17T13:35:51.001Z,51.4
2018-07-17T13:36:41.378Z,51.4
2018-07-17T13:37:31.436Z,51.4
2018-07-17T13:38:20.681Z,51.4
2018-07-17T13:39:11.964Z,51.4
2018-07-17T13:40:01.373Z,51.4
2018-07-17T13:40:51.734Z,51.4
2018-07-17T13:41:41.761Z,51.4
2018-07-17T13:42:31.533Z,51.4
2018-07-17T13:43:21.905Z,51.4
2018-07-17T13:44:11.400Z,51.4
2018-07-17T13:45:01.498Z,51.4
2018-07-17T13:45:52.081Z,51.4
2018-07-17T13:46:41.314Z,51.4
2018-07-17T13:47:32.212Z,51.4
2018-07-17T13:48:21.997Z,51.4
2018-07-17T13:49:12.328Z,51.4
2018-07-17T13:50:02.545Z,51.4
2018-07-17T13:50:52.244Z,51.3
2018-07-17T13:51:42.579Z,51.3
2018-07-17T13:52:32.076Z,51.3
2018-07-17T13:53:22.702Z,51.3
2018-07-17T13:54:12.451Z,51.3
2018-07-17T13:55:01.956Z,51.3
2018-07-17T13:55:52.886Z,51.3
2018-07-17T13:56:42.923Z,51.3
2018-07-17T13:57:32.723Z,51.3
2018-07-17T13:58:22.518Z,51.3
2018-07-17T13:59:13.174Z,51.3
2018-07-17T14:00:03.879Z,51.3
2018-07-17T14:00:52.970Z,51.3
2018-07-17T14:01:43.065Z,51.3
2018-07-17T14:02:33.682Z,51.3
2018-07-17T14:03:23.142Z,51.3
2018-07-17T14:04:13.535Z,51.3
2018-07-17T14:05:03.590Z,51.3
2018-07-17T14:05:53.648Z,51.3
2018-07-17T14:06:43.402Z,51.3
2018-07-17T14:07:33.783Z,51.2
2018-07-17T14:08:23.523Z,51.2
2018-07-17T14:09:13.571Z,51.2
2018-07-17T14:10:03.681Z,51.2
2018-07-17T14:10:53.751Z,51.2
2018-07-17T14:11:43.079Z,51.2
2018-07-17T14:12:33.338Z,51.2
2018-07-17T14:13:24.008Z,51.2
2018-07-17T14:14:14.303Z,51.2
2018-07-17T14:15:04.429Z,51.2
2018-07-17T14:15:54.416Z,51.2
2018-07-17T14:16:43.717Z,51.1
2018-07-17T14:17:34.794Z,51.1
2018-07-17T14:18:24.096Z,51.1
2018-07-17T14:19:14.677Z,51.1
2018-07-17T14:20:04.455Z,51.1
2018-07-17T14:20:54.337Z,51.1
2018-07-17T14:21:44.582Z,51.1
2018-07-17T14:22:34.664Z,51.1
2018-07-17T14:23:24.438Z,51.1
2018-07-17T14:24:15.044Z,51.1
2018-07-17T14:25:04.862Z,51.1
2018-07-17T14:25:55.305Z,51.1
2018-07-17T14:26:44.425Z,51.1
2018-07-17T14:27:35.337Z,51.1
2018-07-17T14:28:25.393Z,51.1
2018-07-17T14:29:15.449Z,51.1
2018-07-17T14:30:05.360Z,51.1
2018-07-17T14:30:55.056Z,51.1
2018-07-17T14:31:45.671Z,51.1
2018-07-17T14:32:35.739Z,51
2018-07-17T14:33:25.773Z,51.1
2018-07-17T14:34:15.813Z,51
2018-07-17T14:35:05.609Z,51
2018-07-17T14:35:56.527Z,51
2018-07-17T14:36:45.781Z,51
2018-07-17T14:37:36.100Z,51
2018-07-17T14:38:25.582Z,51
2018-07-17T14:39:16.205Z,51
2018-07-17T14:40:06.279Z,51
2018-07-17T14:40:56.058Z,51
2018-07-17T14:41:46.405Z,51
2018-07-17T14:42:36.248Z,51
2018-07-17T14:43:26.528Z,50.9
2018-07-17T14:44:16.322Z,50.9
2018-07-17T14:45:06.090Z,50.9
2018-07-17T14:45:56.771Z,50.9
2018-07-17T14:46:46.526Z,50.9
2018-07-17T14:47:36.356Z,50.9
2018-07-17T14:48:26.916Z,50.9
2018-07-17T14:49:16.574Z,50.9
2018-07-17T14:50:06.591Z,50.9
2018-07-17T14:50:56.351Z,50.9
2018-07-17T14:51:46.962Z,50.9
2018-07-17T14:52:36.418Z,50.9
2018-07-17T14:53:27.327Z,50.9
2018-07-17T14:54:17.175Z,50.9
2018-07-17T14:55:07.448Z,50.9
2018-07-17T14:55:57.222Z,50.9
2018-07-17T14:56:47.641Z,50.9
2018-07-17T14:57:37.374Z,50.9
2018-07-17T14:58:27.674Z,50.9
2018-07-17T14:59:17.506Z,50.9
2018-07-17T15:00:08.033Z,50.9
2018-07-17T15:00:57.612Z,50.8
2018-07-17T15:01:47.650Z,50.8
2018-07-17T15:02:38.095Z,50.8
2018-07-17T15:03:27.792Z,50.8
2018-07-17T15:04:18.145Z,50.8
2018-07-17T15:05:08.195Z,50.8
2018-07-17T15:05:58.266Z,50.8
2018-07-17T15:06:48.061Z,50.8
2018-07-17T15:07:37.336Z,50.8
2018-07-17T15:08:28.061Z,50.8
2018-07-17T15:09:17.964Z,50.8
2018-07-17T15:10:08.051Z,50.8
2018-07-17T15:10:58.109Z,50.8
2018-07-17T15:11:48.746Z,50.8
2018-07-17T15:12:38.861Z,50.8
2018-07-17T15:13:28.858Z,50.8
2018-07-17T15:14:18.903Z,50.8
2018-07-17T15:15:08.703Z,50.8
2018-07-17T15:15:59.386Z,50.8
2018-07-17T15:16:49.163Z,50.8
2018-07-17T15:17:39.172Z,50.7
2018-07-17T15:18:28.722Z,50.7
2018-07-17T15:19:18.784Z,50.7
2018-07-17T15:20:09.373Z,50.7
2018-07-17T15:20:59.465Z,50.7
2018-07-17T15:21:49.292Z,50.7
2018-07-17T15:22:39.575Z,50.7
2018-07-17T15:23:28.855Z,50.7
2018-07-17T15:24:19.178Z,50.7
2018-07-17T15:25:09.211Z,50.6
2018-07-17T15:25:59.549Z,50.7
2018-07-17T15:26:49.623Z,50.6
2018-07-17T15:27:39.855Z,50.6
2018-07-17T15:28:29.470Z,50.6
2018-07-17T15:29:20.121Z,50.6
2018-07-17T15:30:09.848Z,50.6
2018-07-17T15:30:59.983Z,50.6
2018-07-17T15:31:49.716Z,50.6
2018-07-17T15:32:40.312Z,50.6
2018-07-17T15:33:29.872Z,50.6
2018-07-17T15:34:19.910Z,50.6
2018-07-17T15:35:11.068Z,50.6
2018-07-17T15:36:00.612Z,50.6
2018-07-17T15:36:50.395Z,50.6
2018-07-17T15:37:39.642Z,50.6
2018-07-17T15:38:31.604Z,50.6
2018-07-17T15:39:20.867Z,50.6
2018-07-17T15:40:10.899Z,50.6
2018-07-17T15:41:01.003Z,50.6
2018-07-17T15:41:50.750Z,50.6
2018-07-17T15:42:40.566Z,50.6
2018-07-17T15:43:31.177Z,50.5
2018-07-17T15:44:21.249Z,50.6
2018-07-17T15:45:11.312Z,50.5
2018-07-17T15:46:01.137Z,50.5
2018-07-17T15:46:51.427Z,50.5
2018-07-17T15:47:41.507Z,50.5
2018-07-17T15:48:31.050Z,50.5
2018-07-17T15:49:21.420Z,50.5
2018-07-17T15:50:11.145Z,50.5
2018-07-17T15:51:01.763Z,50.5
2018-07-17T15:51:51.811Z,50.5
2018-07-17T15:52:41.603Z,50.5
2018-07-17T15:53:31.698Z,50.4
2018-07-17T15:54:22.054Z,50.4
2018-07-17T15:55:11.521Z,50.4
2018-07-17T15:56:01.315Z,50.4
2018-07-17T15:56:51.916Z,50.4
2018-07-17T15:57:42.336Z,50.4
2018-07-17T15:58:32.311Z,50.4
2018-07-17T15:59:22.421Z,50.4
2018-07-17T16:00:12.476Z,50.4
2018-07-17T16:01:02.575Z,50.4
2018-07-17T16:01:52.320Z,50.4
2018-07-17T16:02:42.631Z,50.4
2018-07-17T16:03:32.409Z,50.4
2018-07-17T16:04:22.207Z,50.4
2018-07-17T16:05:12.851Z,50.4
2018-07-17T16:06:02.854Z,50.4
2018-07-17T16:06:52.963Z,50.4
2018-07-17T16:07:43.042Z,50.3
2018-07-17T16:08:33.156Z,50.4
2018-07-17T16:09:23.139Z,50.4
2018-07-17T16:10:13.462Z,50.3
2018-07-17T16:11:03.274Z,50.4
2018-07-17T16:11:53.386Z,50.4
2018-07-17T16:12:43.402Z,50.3
2018-07-17T16:13:34.787Z,50.3
2018-07-17T16:14:29.954Z,50.3
2018-07-17T16:15:13.587Z,50.3
2018-07-17T16:16:03.402Z,50.3
2018-07-17T16:16:53.754Z,50.3
2018-07-17T16:17:43.521Z,50.3
2018-07-17T16:18:33.314Z,50.3
2018-07-17T16:19:23.646Z,50.3
2018-07-17T16:20:14.105Z,50.3
2018-07-17T16:21:04.007Z,50.3
2018-07-17T16:21:53.628Z,50.3
2018-07-17T16:22:43.926Z,50.3
2018-07-17T16:23:34.264Z,50.3
2018-07-17T16:24:24.313Z,50.3
2018-07-17T16:25:14.096Z,50.3
2018-07-17T16:26:04.193Z,50.3
2018-07-17T16:26:54.245Z,50.3
2018-07-17T16:27:44.319Z,50.2
2018-07-17T16:28:33.821Z,50.2
2018-07-17T16:29:23.959Z,50.3
2018-07-17T16:30:14.770Z,50.2
2018-07-17T16:31:04.892Z,50.2
2018-07-17T16:31:54.942Z,50.2
2018-07-17T16:32:44.137Z,50.2
2018-07-17T16:33:34.761Z,50.2
2018-07-17T16:34:24.816Z,50.2
2018-07-17T16:35:14.967Z,50.2
2018-07-17T16:36:05.230Z,50.2
2018-07-17T16:36:55.205Z,50.2
2018-07-17T16:37:45.081Z,50.1
2018-07-17T16:38:35.128Z,50.2
2018-07-17T16:39:25.526Z,50.1
2018-07-17T16:40:15.547Z,50.1
2018-07-17T16:41:05.632Z,50.1
2018-07-17T16:41:55.640Z,50.1
2018-07-17T16:42:45.787Z,50.1
2018-07-17T16:43:35.531Z,50.1
2018-07-17T16:44:25.849Z,50.1
2018-07-17T16:45:15.918Z,50.1
2018-07-17T16:46:05.999Z,50.1
2018-07-17T16:46:55.750Z,50.1
2018-07-17T16:47:45.343Z,50.1
2018-07-17T16:48:35.903Z,50.1
2018-07-17T16:49:25.475Z,50.1
2018-07-17T16:50:16.308Z,50.1
2018-07-17T16:51:06.362Z,50.1
2018-07-17T16:51:55.645Z,50.1
2018-07-17T16:52:46.514Z,50.1
2018-07-17T16:53:36.001Z,50.1
2018-07-17T16:54:26.657Z,50
2018-07-17T16:55:16.193Z,50
2018-07-17T16:56:06.474Z,50
2018-07-17T16:56:56.564Z,50
2018-07-17T16:57:46.336Z,50
2018-07-17T16:58:36.441Z,50
2018-07-17T16:59:26.476Z,50
2018-07-17T17:00:17.077Z,50
2018-07-17T17:01:06.887Z,50
2018-07-17T17:01:57.222Z,49.9
2018-07-17T17:02:47.353Z,50
2018-07-17T17:03:37.321Z,50
2018-07-17T17:04:27.397Z,49.9
2018-07-17T17:05:16.698Z,49.9
2018-07-17T17:06:07.289Z,49.9
2018-07-17T17:06:57.573Z,49.9
2018-07-17T17:07:47.347Z,49.9
2018-07-17T17:08:37.704Z,49.9
2018-07-17T17:09:27.497Z,49.9
2018-07-17T17:10:17.573Z,49.9
2018-07-17T17:11:07.733Z,49.9
2018-07-17T17:11:57.135Z,49.9
2018-07-17T17:12:48.013Z,49.9
2018-07-17T17:13:38.111Z,49.9
2018-07-17T17:14:28.166Z,49.9
2018-07-17T17:15:18.272Z,49.9
2018-07-17T17:16:08.299Z,49.9
2018-07-17T17:16:58.084Z,49.9
2018-07-17T17:17:48.126Z,49.9
2018-07-17T17:18:38.474Z,49.9
2018-07-17T17:19:27.723Z,49.9
2018-07-17T17:20:18.614Z,49.9
2018-07-17T17:21:08.672Z,49.9
2018-07-17T17:21:58.728Z,49.8
2018-07-17T17:22:48.843Z,49.8
2018-07-17T17:23:38.039Z,49.8
2018-07-17T17:24:30.585Z,49.8
2018-07-17T17:25:18.997Z,49.8
2018-07-17T17:26:08.883Z,49.8
2018-07-17T17:26:59.119Z,49.8
2018-07-17T17:27:48.328Z,49.8